createdAt,value
2023-05-17T00:02:06.192Z,100925.53
2023-05-17T00:04:34.991Z,100935.78
2023-05-17T00:07:04.422Z,100932.97
2023-05-17T00:09:32.998Z,100934.47
2023-05-17T00:12:01.764Z,100931.69
2023-05-17T00:14:31.783Z,100933.28
2023-05-17T00:17:00.587Z,100925.25
2023-05-17T00:19:29.403Z,100925.19
2023-05-17T00:21:58.012Z,100934.56
2023-05-17T00:24:27.307Z,100935.25
2023-05-17T00:26:55.978Z,100935.94
2023-05-17T00:29:24.660Z,100930.59
2023-05-17T00:31:54.800Z,100937.38
2023-05-17T00:34:23.856Z,100933.66
2023-05-17T00:36:52.524Z,100932.63
2023-05-17T00:39:21.335Z,100928.16
2023-05-17T00:41:50.068Z,100930.59
2023-05-17T00:44:18.736Z,100935.75
2023-05-17T00:46:48.033Z,100933.00
2023-05-17T00:49:18.466Z,100926.81
2023-05-17T00:51:47.504Z,100924.03
2023-05-17T00:54:17.140Z,100923.09
2023-05-17T00:56:46.378Z,100928.97
2023-05-17T00:59:15.375Z,100932.31
2023-05-17T01:01:44.901Z,100927.84
2023-05-17T01:04:14.461Z,100930.31
2023-05-17T01:06:44.658Z,100932.78
2023-05-17T01:09:16.644Z,100933.59
2023-05-17T01:11:55.905Z,100940.44
2023-05-17T01:14:38.555Z,100942.91
2023-05-17T01:17:13.674Z,100944.38
2023-05-17T01:19:56.062Z,100944.22
2023-05-17T01:22:34.002Z,100939.59
2023-05-17T01:25:28.364Z,100946.38
2023-05-17T01:28:02.582Z,100942.72
2023-05-17T01:30:31.827Z,100952.09
2023-05-17T01:33:01.543Z,100944.94
2023-05-17T01:35:30.402Z,100944.78
2023-05-17T01:38:00.521Z,100940.31
2023-05-17T01:40:29.459Z,100938.38
2023-05-17T01:43:10.553Z,100946.09
2023-05-17T01:45:42.790Z,100953.78
2023-05-17T01:48:17.092Z,100952.78
2023-05-17T01:50:51.033Z,100964.84
2023-05-17T01:53:26.892Z,100962.94
2023-05-17T01:56:02.357Z,100966.28
2023-05-17T01:58:35.901Z,100953.88
2023-05-17T02:01:06.047Z,100957.97
2023-05-17T02:03:34.757Z,100962.09
2023-05-17T02:06:03.757Z,100968.06
2023-05-17T02:08:32.372Z,100964.50
2023-05-17T02:11:00.926Z,100964.31
2023-05-17T02:13:33.977Z,100964.06
2023-05-17T02:16:03.066Z,100962.13
2023-05-17T02:18:32.543Z,100963.66
2023-05-17T02:21:01.598Z,100967.00
2023-05-17T02:23:30.548Z,100966.78
2023-05-17T02:25:59.131Z,100968.41
2023-05-17T02:28:33.402Z,100963.00
2023-05-17T02:31:06.215Z,100966.28
2023-05-17T02:33:35.437Z,100965.22
2023-05-17T02:36:04.194Z,100962.44
2023-05-17T02:38:32.792Z,100969.28
2023-05-17T02:41:01.290Z,100972.59
2023-05-17T02:43:29.783Z,100985.56
2023-05-17T02:45:58.418Z,100988.97
2023-05-17T02:48:28.348Z,100988.91
2023-05-17T02:50:56.886Z,100980.00
2023-05-17T02:53:25.532Z,100991.97
2023-05-17T02:55:57.938Z,100992.59
2023-05-17T02:58:26.791Z,100996.75
2023-05-17T03:00:55.476Z,100993.16
2023-05-17T03:03:25.435Z,100981.69
2023-05-17T03:05:55.762Z,100980.63
2023-05-17T03:08:25.007Z,100986.47
2023-05-17T03:10:53.613Z,100988.91
2023-05-17T03:13:22.440Z,100997.53
2023-05-17T03:15:51.598Z,100997.38
2023-05-17T03:18:20.263Z,101005.06
2023-05-17T03:20:49.386Z,101002.38
2023-05-17T03:23:19.682Z,100999.69
2023-05-17T03:25:55.385Z,101006.53
2023-05-17T03:28:23.971Z,101008.13
2023-05-17T03:30:53.161Z,101001.16
2023-05-17T03:33:22.256Z,101005.44
2023-05-17T03:35:50.942Z,101006.34
2023-05-17T03:38:20.922Z,101011.56
2023-05-17T03:40:49.545Z,101007.13
2023-05-17T03:43:18.753Z,101018.44
2023-05-17T03:45:48.413Z,101018.53
2023-05-17T03:48:19.372Z,101022.03
2023-05-17T03:50:47.941Z,101030.72
2023-05-17T03:53:16.791Z,101029.13
2023-05-17T03:55:46.734Z,101029.31
2023-05-17T03:58:15.749Z,101029.47
2023-05-17T04:00:44.410Z,101031.34
2023-05-17T04:03:19.344Z,101028.91
2023-05-17T04:05:51.560Z,101033.50
2023-05-17T04:08:20.068Z,101029.25
2023-05-17T04:10:49.992Z,101034.66
2023-05-17T04:13:18.434Z,101038.25
2023-05-17T04:15:47.640Z,101042.72
2023-05-17T04:18:17.875Z,101036.78
2023-05-17T04:20:46.589Z,101036.94
2023-05-17T04:23:15.242Z,101036.22
2023-05-17T04:25:44.948Z,101041.75
2023-05-17T04:28:14.915Z,101048.06
2023-05-17T04:30:43.705Z,101055.19
2023-05-17T04:33:14.085Z,101043.28
2023-05-17T04:35:43.667Z,101046.19
2023-05-17T04:38:12.416Z,101047.28
2023-05-17T04:40:41.494Z,101059.72
2023-05-17T04:43:10.408Z,101055.66
2023-05-17T04:45:41.172Z,101063.75
2023-05-17T04:48:09.851Z,101066.66
2023-05-17T04:50:38.556Z,101066.91
2023-05-17T04:53:07.752Z,101068.16
2023-05-17T04:55:38.445Z,101062.38
2023-05-17T04:58:07.850Z,101068.81
2023-05-17T05:00:37.489Z,101074.34
2023-05-17T05:03:08.793Z,101084.19
2023-05-17T05:05:38.068Z,101070.59
2023-05-17T05:08:06.958Z,101087.38
2023-05-17T05:10:36.075Z,101102.44
2023-05-17T05:13:04.692Z,101092.25
2023-05-17T05:15:33.913Z,101096.97
2023-05-17T05:18:03.657Z,101093.69
2023-05-17T05:20:34.047Z,101098.34
2023-05-17T05:23:06.370Z,101104.75
2023-05-17T05:25:36.580Z,101103.16
2023-05-17T05:28:05.805Z,101114.84
2023-05-17T05:30:36.550Z,101117.75
2023-05-17T05:33:06.417Z,101119.75
2023-05-17T05:35:38.481Z,101118.31
2023-05-17T05:38:07.777Z,101116.81
2023-05-17T05:40:37.473Z,101120.56
2023-05-17T05:43:06.260Z,101126.06
2023-05-17T05:45:34.794Z,101127.16
2023-05-17T05:48:05.939Z,101116.09
2023-05-17T05:50:37.183Z,101118.03
2023-05-17T05:53:18.875Z,101119.09
2023-05-17T05:55:56.965Z,101122.75
2023-05-17T05:58:26.121Z,101128.19
2023-05-17T06:00:54.785Z,101129.25
2023-05-17T06:03:23.786Z,101134.63
2023-05-17T06:05:53.897Z,101136.50
2023-05-17T06:08:22.775Z,101131.50
2023-05-17T06:10:51.359Z,101134.25
2023-05-17T06:13:22.548Z,101131.78
2023-05-17T06:15:51.270Z,101132.84
2023-05-17T06:18:20.198Z,101135.59
2023-05-17T06:20:49.017Z,101139.25
2023-05-17T06:23:18.961Z,101144.59
2023-05-17T06:25:47.909Z,101139.56
2023-05-17T06:28:16.748Z,101151.03
2023-05-17T06:30:46.752Z,101148.50
2023-05-17T06:33:15.469Z,101150.41
2023-05-17T06:38:26.018Z,101151.63
2023-05-17T06:40:58.501Z,101152.59
2023-05-17T06:43:27.241Z,101156.19
2023-05-17T06:45:55.800Z,101161.63
2023-05-17T06:48:24.565Z,101152.13
2023-05-17T06:50:53.517Z,101159.22
2023-05-17T06:53:22.457Z,101161.06
2023-05-17T06:55:52.557Z,101162.06
2023-05-17T06:58:21.267Z,101169.22
2023-05-17T07:00:50.112Z,101171.97
2023-05-17T07:03:18.982Z,101173.91
2023-05-17T07:05:47.555Z,101181.91
2023-05-17T07:08:16.298Z,101176.94
2023-05-17T07:10:44.906Z,101175.47
2023-05-17T07:13:14.763Z,101183.72
2023-05-17T07:15:44.005Z,101186.75
2023-05-17T07:18:13.120Z,101182.88
2023-05-17T07:20:41.881Z,101185.00
2023-05-17T07:23:10.367Z,101194.16
2023-05-17T07:25:40.502Z,101190.09
2023-05-17T07:28:09.085Z,101190.38
2023-05-17T07:30:39.413Z,101189.81
2023-05-17T07:33:08.240Z,101187.47
2023-05-17T07:35:37.229Z,101191.19
2023-05-17T07:38:05.903Z,101187.09
2023-05-17T07:40:34.651Z,101191.72
2023-05-17T07:43:03.350Z,101193.63
2023-05-17T07:45:32.180Z,101206.03
2023-05-17T07:48:02.630Z,101199.19
2023-05-17T07:50:37.153Z,101203.66
2023-05-17T07:53:06.042Z,101202.97
2023-05-17T07:55:34.974Z,101199.66
2023-05-17T07:58:03.702Z,101206.75
2023-05-17T08:00:33.142Z,101208.59
2023-05-17T08:03:03.084Z,101206.88
2023-05-17T08:05:32.321Z,101216.66
2023-05-17T08:08:01.344Z,101206.31
2023-05-17T08:10:32.480Z,101202.19
2023-05-17T08:13:01.367Z,101216.53
2023-05-17T08:15:30.793Z,101210.72
2023-05-17T08:18:01.458Z,101218.81
2023-05-17T08:20:33.624Z,101213.81
2023-05-17T08:23:03.115Z,101223.59
2023-05-17T08:25:32.060Z,101220.19
2023-05-17T08:28:02.500Z,101223.66
2023-05-17T08:30:31.469Z,101222.00
2023-05-17T08:33:00.653Z,101232.63
2023-05-17T08:35:29.403Z,101226.59
2023-05-17T08:37:59.320Z,101218.91
2023-05-17T08:40:29.378Z,101218.22
2023-05-17T08:42:58.655Z,101228.00
2023-05-17T08:45:29.417Z,101234.41
2023-05-17T08:47:58.541Z,101233.56
2023-05-17T08:50:30.463Z,101237.97
2023-05-17T08:53:01.869Z,101231.00
2023-05-17T08:55:33.131Z,101228.50
2023-05-17T08:58:02.349Z,101221.50
2023-05-17T09:00:33.438Z,101232.19
2023-05-17T09:03:02.306Z,101226.16
2023-05-17T09:05:31.181Z,101227.94
2023-05-17T09:08:01.732Z,101226.28
2023-05-17T09:10:31.624Z,101225.69
2023-05-17T09:13:00.517Z,101232.13
2023-05-17T09:15:30.550Z,101227.88
2023-05-17T09:17:59.445Z,101240.16
2023-05-17T09:20:34.155Z,101233.25
2023-05-17T09:23:05.396Z,101239.50
2023-05-17T09:25:34.211Z,101235.31
2023-05-17T09:28:03.738Z,101237.34
2023-05-17T09:30:34.226Z,101234.84
2023-05-17T09:33:07.209Z,101229.69
2023-05-17T09:35:37.032Z,101228.16
2023-05-17T09:38:09.120Z,101232.78
2023-05-17T09:40:42.239Z,101230.31
2023-05-17T09:43:11.549Z,101222.72
2023-05-17T09:45:40.322Z,101231.03
2023-05-17T09:48:16.725Z,101225.25
2023-05-17T09:50:47.389Z,101223.78
2023-05-17T09:53:28.979Z,101225.56
2023-05-17T09:55:59.867Z,101224.84
2023-05-17T09:58:29.747Z,101218.72
2023-05-17T10:01:01.745Z,101218.97
2023-05-17T10:03:34.585Z,101221.78
2023-05-17T10:06:05.429Z,101210.38
2023-05-17T10:08:36.681Z,101220.91
2023-05-17T10:11:08.933Z,101213.19
2023-05-17T10:13:44.283Z,101216.94
2023-05-17T10:16:15.710Z,101219.75
2023-05-17T10:18:46.372Z,101220.63
2023-05-17T10:21:15.953Z,101217.03
2023-05-17T10:23:47.478Z,101211.69
2023-05-17T10:26:17.266Z,101214.22
2023-05-17T10:28:47.460Z,101207.38
2023-05-17T10:31:16.615Z,101210.00
2023-05-17T10:33:48.649Z,101210.00
2023-05-17T10:36:21.538Z,101195.09
2023-05-17T10:38:53.592Z,101209.22
2023-05-17T10:41:25.004Z,101206.84
2023-05-17T10:43:55.854Z,101202.78
2023-05-17T10:46:25.067Z,101205.72
2023-05-17T10:48:55.409Z,101206.03
2023-05-17T10:51:25.570Z,101201.06
2023-05-17T10:54:09.761Z,101204.72
2023-05-17T10:56:42.829Z,101202.25
2023-05-17T10:59:23.459Z,101209.50
2023-05-17T11:01:54.400Z,101214.97
2023-05-17T11:04:25.674Z,101201.97
2023-05-17T11:06:57.202Z,101191.53
2023-05-17T11:09:27.781Z,101196.78
2023-05-17T11:12:09.949Z,101194.16
2023-05-17T11:14:54.341Z,101195.09
2023-05-17T11:17:26.518Z,101187.41
2023-05-17T11:20:11.667Z,101185.94
2023-05-17T11:22:44.589Z,101192.47
2023-05-17T11:25:15.836Z,101189.31
2023-05-17T11:27:50.544Z,101189.47
2023-05-17T11:30:20.743Z,101186.00
2023-05-17T11:32:51.858Z,101190.53
2023-05-17T11:35:25.870Z,101189.78
2023-05-17T11:38:15.599Z,101187.47
2023-05-17T11:40:50.435Z,101186.78
2023-05-17T11:43:21.615Z,101182.72
2023-05-17T11:45:53.540Z,101183.06
2023-05-17T11:48:24.302Z,101185.00
2023-05-17T11:50:54.768Z,101183.25
2023-05-17T11:53:25.576Z,101186.84
2023-05-17T11:55:56.524Z,101180.94
2023-05-17T11:58:30.557Z,101184.56
2023-05-17T12:00:59.928Z,101184.56
2023-05-17T12:03:33.294Z,101189.84
2023-05-17T12:06:08.154Z,101189.78
2023-05-17T12:08:40.854Z,101195.13
2023-05-17T12:11:14.741Z,101183.91
2023-05-17T12:13:44.016Z,101178.91
2023-05-17T12:16:16.809Z,101177.59
2023-05-17T12:18:50.190Z,101178.84
2023-05-17T12:21:21.453Z,101181.44
2023-05-17T12:23:52.870Z,101182.97
2023-05-17T12:26:26.639Z,101182.03
2023-05-17T12:28:57.377Z,101176.88
2023-05-17T12:31:29.842Z,101178.03
2023-05-17T12:34:02.808Z,101172.16
2023-05-17T12:36:33.644Z,101172.41
2023-05-17T12:39:03.282Z,101177.91
2023-05-17T12:41:33.794Z,101172.63
2023-05-17T12:44:14.832Z,101188.22
2023-05-17T12:46:44.576Z,101182.78
2023-05-17T12:49:13.458Z,101178.53
2023-05-17T12:51:43.892Z,101176.00
2023-05-17T12:54:13.878Z,101179.66
2023-05-17T12:56:45.044Z,101180.88
2023-05-17T12:59:17.447Z,101174.13
2023-05-17T13:01:47.931Z,101176.13
2023-05-17T13:04:18.181Z,101181.59
2023-05-17T13:06:48.294Z,101179.16
2023-05-17T13:09:20.136Z,101181.84
2023-05-17T13:11:53.995Z,101177.47
2023-05-17T13:14:36.515Z,101175.88
2023-05-17T13:17:08.679Z,101176.91
2023-05-17T13:19:37.577Z,101178.06
2023-05-17T13:22:07.367Z,101175.56
2023-05-17T13:24:37.752Z,101180.94
2023-05-17T13:27:08.417Z,101171.28
2023-05-17T13:29:41.649Z,101172.22
2023-05-17T13:32:12.656Z,101176.72
2023-05-17T13:34:42.057Z,101163.63
2023-05-17T13:37:12.334Z,101164.66
2023-05-17T13:39:42.195Z,101164.72
2023-05-17T13:42:13.177Z,101165.69
2023-05-17T13:44:43.244Z,101161.41
2023-05-17T13:47:12.151Z,101159.81
2023-05-17T13:49:41.229Z,101159.19
2023-05-17T13:52:10.111Z,101159.41
2023-05-17T13:54:39.060Z,101165.78
2023-05-17T13:57:08.308Z,101160.47
2023-05-17T13:59:39.270Z,101150.69
2023-05-17T14:02:09.136Z,101144.47
2023-05-17T14:04:37.708Z,101138.34
2023-05-17T14:07:08.048Z,101144.59
2023-05-17T14:09:36.879Z,101151.75
2023-05-17T14:12:05.995Z,101157.06
2023-05-17T14:14:34.544Z,101149.97
2023-05-17T14:17:04.728Z,101150.03
2023-05-17T14:19:33.367Z,101148.34
2023-05-17T14:22:01.917Z,101141.34
2023-05-17T14:24:30.556Z,101145.88
2023-05-17T14:26:59.301Z,101147.78
2023-05-17T14:29:27.803Z,101139.00
2023-05-17T14:31:56.240Z,101137.38
2023-05-17T14:34:26.218Z,101133.81
2023-05-17T14:36:54.768Z,101134.72
2023-05-17T14:39:23.311Z,101135.59
2023-05-17T14:41:51.941Z,101129.41
2023-05-17T14:44:20.472Z,101125.88
2023-05-17T14:46:50.135Z,101129.44
2023-05-17T14:49:18.690Z,101125.91
2023-05-17T14:51:48.784Z,101120.56
2023-05-17T14:54:18.306Z,101125.00
2023-05-17T14:56:47.188Z,101129.44
2023-05-17T14:59:18.411Z,101134.81
2023-05-17T15:01:46.806Z,101121.47
2023-05-17T15:04:18.098Z,101127.69
2023-05-17T15:06:48.451Z,101133.00
2023-05-17T15:09:22.788Z,101133.88
2023-05-17T15:11:54.591Z,101125.84
2023-05-17T15:14:24.369Z,101127.56
2023-05-17T15:16:53.988Z,101124.03
2023-05-17T15:19:22.979Z,101131.16
2023-05-17T15:21:53.031Z,101131.16
2023-05-17T15:24:21.586Z,101124.06
2023-05-17T15:26:53.242Z,101125.81
2023-05-17T15:29:21.966Z,101129.38
2023-05-17T15:31:53.271Z,101125.81
2023-05-17T15:34:21.813Z,101120.53
2023-05-17T15:36:50.763Z,101127.63
2023-05-17T15:39:20.691Z,101120.56
2023-05-17T15:41:49.202Z,101113.41
2023-05-17T15:44:18.756Z,101112.47
2023-05-17T15:46:47.440Z,101117.78
2023-05-17T15:49:16.085Z,101113.34
2023-05-17T15:51:44.533Z,101105.31
2023-05-17T15:54:13.093Z,101111.53
2023-05-17T15:56:43.112Z,101115.94
2023-05-17T15:59:14.511Z,101120.38
2023-05-17T16:01:46.267Z,101103.38
2023-05-17T16:04:14.928Z,101119.38
2023-05-17T16:06:43.683Z,101116.75
2023-05-17T16:09:14.390Z,101126.56
2023-05-17T16:11:47.159Z,101124.00
2023-05-17T16:14:15.778Z,101120.50
2023-05-17T16:16:45.289Z,101121.41
2023-05-17T16:19:14.210Z,101124.09
2023-05-17T16:21:42.912Z,101125.88
2023-05-17T16:24:11.382Z,101121.41
2023-05-17T16:26:40.084Z,101119.63
2023-05-17T16:29:10.102Z,101127.63
2023-05-17T16:31:38.885Z,101127.63
2023-05-17T16:34:07.588Z,101126.75
2023-05-17T16:36:39.095Z,101126.72
2023-05-17T16:39:07.853Z,101130.25
2023-05-17T16:41:37.377Z,101129.38
2023-05-17T16:44:06.257Z,101124.94
2023-05-17T16:46:36.140Z,101134.72
2023-05-17T16:49:04.785Z,101130.31
2023-05-17T16:51:33.289Z,101131.22
2023-05-17T16:54:01.902Z,101141.88
2023-05-17T16:56:30.550Z,101133.91
2023-05-17T16:58:59.618Z,101133.91
2023-05-17T17:01:28.182Z,101132.09
2023-05-17T17:03:58.191Z,101135.66
2023-05-17T17:06:26.912Z,101138.34
2023-05-17T17:08:55.553Z,101145.44
2023-05-17T17:11:24.065Z,101141.88
2023-05-17T17:13:52.586Z,101139.19
2023-05-17T17:16:21.386Z,101146.31
2023-05-17T17:18:50.433Z,101141.84
2023-05-17T17:21:20.426Z,101141.84
2023-05-17T17:23:48.959Z,101141.84
2023-05-17T17:26:17.462Z,101143.63
2023-05-17T17:28:46.121Z,101156.91
2023-05-17T17:31:14.733Z,101156.84
2023-05-17T17:33:43.212Z,101150.56
2023-05-17T17:36:11.989Z,101159.34
2023-05-17T17:38:41.950Z,101158.41
2023-05-17T17:41:10.471Z,101155.66
2023-05-17T17:43:39.041Z,101152.03
2023-05-17T17:46:07.541Z,101153.69
2023-05-17T17:48:36.141Z,101162.44
2023-05-17T17:51:05.018Z,101157.03
2023-05-17T17:53:33.512Z,101162.22
2023-05-17T17:56:03.408Z,101159.38
2023-05-17T17:58:31.941Z,101160.09
2023-05-17T18:01:00.471Z,101166.03
2023-05-17T18:03:29.116Z,101161.47
2023-05-17T18:05:57.550Z,101169.28
2023-05-17T18:08:26.173Z,101167.28
2023-05-17T18:10:54.971Z,101173.25
2023-05-17T18:13:24.951Z,101176.63
2023-05-17T18:15:53.480Z,101176.47
2023-05-17T18:18:22.038Z,101175.41
2023-05-17T18:20:51.523Z,101181.44
2023-05-17T18:23:20.044Z,101178.63
2023-05-17T18:25:50.666Z,101177.59
2023-05-17T18:28:29.960Z,101178.28
2023-05-17T18:31:07.773Z,101178.00
2023-05-17T18:33:36.141Z,101186.63
2023-05-17T18:36:05.017Z,101181.13
2023-05-17T18:38:35.498Z,101181.84
2023-05-17T18:41:04.307Z,101179.84
2023-05-17T18:43:32.845Z,101184.06
2023-05-17T18:46:01.405Z,101183.88
2023-05-17T18:48:36.149Z,101185.47
2023-05-17T18:51:04.976Z,101188.75
2023-05-17T18:53:33.633Z,101180.66
2023-05-17T18:56:02.612Z,101178.75
2023-05-17T18:58:31.211Z,101189.16
2023-05-17T19:01:01.540Z,101188.16
2023-05-17T19:03:32.017Z,101193.22
2023-05-17T19:06:00.658Z,101188.63
2023-05-17T19:08:29.381Z,101197.25
2023-05-17T19:10:57.875Z,101200.56
2023-05-17T19:13:27.161Z,101199.41
2023-05-17T19:15:55.692Z,101201.84
2023-05-17T19:18:24.433Z,101197.22
2023-05-17T19:20:54.389Z,101200.59
2023-05-17T19:23:23.098Z,101200.41
2023-05-17T19:25:53.445Z,101203.75
2023-05-17T19:28:22.010Z,101210.59
2023-05-17T19:30:50.959Z,101207.69
2023-05-17T19:33:19.540Z,101214.53
2023-05-17T19:35:48.148Z,101207.34
2023-05-17T19:38:18.157Z,101216.81
2023-05-17T19:40:47.233Z,101216.59
2023-05-17T19:43:15.814Z,101224.31
2023-05-17T19:45:44.587Z,101219.69
2023-05-17T19:48:13.292Z,101228.34
2023-05-17T19:50:41.931Z,101222.94
2023-05-17T19:53:10.399Z,101229.72
2023-05-17T19:55:41.114Z,101228.59
2023-05-17T19:58:09.721Z,101231.91
2023-05-17T20:00:38.453Z,101231.69
2023-05-17T20:03:07.144Z,101235.00
2023-05-17T20:05:35.816Z,101236.50
2023-05-17T20:08:06.530Z,101236.22
2023-05-17T20:10:35.411Z,101233.31
2023-05-17T20:13:05.596Z,101233.84
2023-05-17T20:15:34.344Z,101237.94
2023-05-17T20:18:03.064Z,101228.84
2023-05-17T20:20:31.965Z,101228.66
2023-05-17T20:23:00.807Z,101224.03
2023-05-17T20:25:29.434Z,101225.59
2023-05-17T20:27:58.070Z,101226.25
2023-05-17T20:30:28.309Z,101227.81
2023-05-17T20:32:57.032Z,101232.00
2023-05-17T20:35:28.729Z,101236.13
2023-05-17T20:37:57.328Z,101240.28
2023-05-17T20:40:26.027Z,101236.50
2023-05-17T20:42:54.646Z,101246.81
2023-05-17T20:45:23.301Z,101239.63
2023-05-17T20:47:53.350Z,101245.50
2023-05-17T20:50:22.750Z,101244.38
2023-05-17T20:52:51.304Z,101245.91
2023-05-17T20:55:20.271Z,101248.38
2023-05-17T20:57:48.815Z,101244.69
2023-05-17T21:00:18.662Z,101245.34
2023-05-17T21:02:47.576Z,101244.28
2023-05-17T21:05:17.672Z,101241.53
2023-05-17T21:07:46.774Z,101252.00
2023-05-17T21:10:15.414Z,101251.84
2023-05-17T21:12:43.929Z,101251.69
2023-05-17T21:15:17.100Z,101256.81
2023-05-17T21:17:46.207Z,101248.72
2023-05-17T21:20:15.096Z,101243.28
2023-05-17T21:22:45.906Z,101251.94
2023-05-17T21:25:14.628Z,101247.38
2023-05-17T21:27:43.334Z,101250.75
2023-05-17T21:30:12.481Z,101248.81
2023-05-17T21:32:41.039Z,101251.22
2023-05-17T21:35:09.885Z,101251.03
2023-05-17T21:37:40.117Z,101256.09
2023-05-17T21:40:11.184Z,101254.13
2023-05-17T21:42:40.001Z,101250.41
2023-05-17T21:45:09.561Z,101256.41
2023-05-17T21:47:38.382Z,101253.66
2023-05-17T21:50:07.779Z,101254.38
2023-05-17T21:52:36.425Z,101249.81
2023-05-17T21:55:05.788Z,101251.44
2023-05-17T21:57:36.467Z,101253.88
2023-05-17T22:00:07.853Z,101254.53
2023-05-17T22:02:36.592Z,101246.47
2023-05-17T22:05:05.742Z,101255.78
2023-05-17T22:07:34.529Z,101254.78
2023-05-17T22:10:03.300Z,101252.84
2023-05-17T22:12:34.955Z,101255.22
2023-05-17T22:15:05.499Z,101250.66
2023-05-17T22:17:43.125Z,101252.19
2023-05-17T22:20:19.648Z,101251.16
2023-05-17T22:22:48.240Z,101258.75
2023-05-17T22:25:17.721Z,101258.56
2023-05-17T22:27:46.573Z,101254.84
2023-05-17T22:30:16.766Z,101257.34
2023-05-17T22:32:45.418Z,101256.25
2023-05-17T22:35:13.966Z,101256.13
2023-05-17T22:37:43.357Z,101253.28
2023-05-17T22:40:12.298Z,101259.28
2023-05-17T22:42:41.745Z,101260.03
2023-05-17T22:45:12.645Z,101251.97
2023-05-17T22:47:43.621Z,101260.50
2023-05-17T22:50:14.470Z,101263.00
2023-05-17T22:52:43.034Z,101261.16
2023-05-17T22:55:11.836Z,101269.66
2023-05-17T22:57:40.540Z,101273.03
2023-05-17T23:00:11.526Z,101272.03
2023-05-17T23:02:40.359Z,101272.66
2023-05-17T23:05:11.241Z,101267.25
2023-05-17T23:07:41.441Z,101272.34
2023-05-17T23:10:11.622Z,101275.72
2023-05-17T23:12:40.644Z,101268.63
2023-05-17T23:15:10.671Z,101271.09
2023-05-17T23:17:39.826Z,101267.50
2023-05-17T23:20:12.118Z,101267.38
2023-05-17T23:22:41.449Z,101269.88
2023-05-17T23:25:10.778Z,101265.25
2023-05-17T23:27:39.341Z,101265.13
2023-05-17T23:30:09.504Z,101271.03
2023-05-17T23:32:38.389Z,101268.28
2023-05-17T23:35:09.230Z,101262.91
2023-05-17T23:37:39.544Z,101262.72
2023-05-17T23:40:09.473Z,101267.03
2023-05-17T23:42:38.409Z,101270.16
2023-05-17T23:45:09.295Z,101262.16
2023-05-17T23:47:40.701Z,101267.22
2023-05-17T23:50:10.379Z,101264.47
2023-05-17T23:52:40.547Z,101266.94
2023-05-17T23:55:09.876Z,101269.38
2023-05-17T23:57:39.180Z,101257.00
